Time;durP1;ratioP1;P1;durP2;ratioP2;P2;SDS_P1;SDS_P2;PMS_P1;PMS_P2;Temp;Humidity;BMP_temperature;BMP_pressure;BME280_temperature;BME280_humidity;BME280_pressure;Samples;Min_cycle;Max_cycle;Signal;HPM_P1;HPM_P2
2021/01/08 00:02:20;;;;;;;4.57;2.20;;;3.10;99.90;;;;;;5029248;28;20235;-66
2021/01/08 00:04:46;;;;;;;3.27;1.60;;;3.10;99.90;;;;;;5029761;28;20200;-64
2021/01/08 00:07:13;;;;;;;4.03;1.87;;;3.10;99.90;;;;;;5028624;28;20204;-64
2021/01/08 00:09:40;;;;;;;5.60;3.10;;;3.10;99.90;;;;;;5027242;28;20204;-65
2021/01/08 00:12:07;;;;;;;6.77;4.07;;;3.10;99.90;;;;;;5035309;28;20559;-65
2021/01/08 00:14:34;;;;;;;7.70;4.63;;;3.10;99.90;;;;;;5033840;28;20205;-64
2021/01/08 00:17:00;;;;;;;6.73;5.17;;;3.00;99.90;;;;;;5032913;28;20220;-65
2021/01/08 00:19:27;;;;;;;9.70;6.00;;;3.00;99.90;;;;;;5020784;28;20235;-63
2021/01/08 00:21:54;;;;;;;10.83;6.13;;;3.00;99.90;;;;;;5031878;28;20292;-67
2021/01/08 00:24:21;;;;;;;8.83;6.37;;;3.00;99.90;;;;;;5024769;28;20196;-66
2021/01/08 00:26:48;;;;;;;8.57;6.63;;;3.00;99.90;;;;;;5034617;28;20223;-66
2021/01/08 00:29:16;;;;;;;9.90;6.90;;;3.00;99.90;;;;;;5021498;28;20205;-66
2021/01/08 00:31:44;;;;;;;11.10;6.80;;;2.90;99.90;;;;;;5028165;28;20277;-65
2021/01/08 00:34:13;;;;;;;11.20;6.60;;;3.00;99.90;;;;;;5035922;28;20200;-67
2021/01/08 00:36:48;;;;;;;9.30;6.70;;;3.00;99.90;;;;;;5026690;28;20290;-65
2021/01/08 00:39:15;;;;;;;9.13;6.20;;;3.00;99.90;;;;;;5024790;28;20249;-66
2021/01/08 00:41:41;;;;;;;8.60;5.60;;;3.00;99.90;;;;;;5033768;28;20716;-67
2021/01/08 00:44:08;;;;;;;8.83;5.47;;;3.00;99.90;;;;;;5033399;28;20254;-65
2021/01/08 00:46:36;;;;;;;7.43;5.10;;;3.00;99.90;;;;;;5030180;28;20250;-65
2021/01/08 00:49:04;;;;;;;8.10;4.87;;;3.00;99.90;;;;;;5034633;28;20211;-65
2021/01/08 00:51:31;;;;;;;7.63;5.50;;;3.00;99.90;;;;;;5032608;28;20204;-65
2021/01/08 00:53:58;;;;;;;6.37;4.97;;;3.00;99.90;;;;;;5032485;28;20203;-65
2021/01/08 00:56:24;;;;;;;8.10;5.70;;;3.00;99.90;;;;;;5023254;28;20228;-64
2021/01/08 00:58:51;;;;;;;16.03;6.30;;;3.00;99.90;;;;;;5031816;28;20201;-64
2021/01/08 01:01:18;;;;;;;8.50;5.50;;;3.00;99.90;;;;;;5032824;28;20204;-64
2021/01/08 01:03:46;;;;;;;8.00;5.13;;;2.90;99.90;;;;;;5032869;28;20589;-64
2021/01/08 01:06:20;;;;;;;7.83;4.97;;;2.90;99.90;;;;;;5032987;28;20199;-64
2021/01/08 01:08:47;;;;;;;7.20;5.37;;;2.90;99.90;;;;;;5029952;28;20213;-64
2021/01/08 01:11:15;;;;;;;9.90;5.70;;;2.90;99.90;;;;;;5033157;28;20204;-64
2021/01/08 01:13:41;;;;;;;13.27;7.00;;;2.90;99.90;;;;;;5031348;28;20207;-64
2021/01/08 01:16:08;;;;;;;10.23;6.80;;;2.90;99.90;;;;;;5033588;28;20697;-66
2021/01/08 01:18:34;;;;;;;11.60;7.60;;;2.90;99.90;;;;;;5028072;28;20201;-64
2021/01/08 01:21:02;;;;;;;15.87;8.67;;;2.90;99.90;;;;;;5027712;28;20201;-66
2021/01/08 01:23:28;;;;;;;14.43;8.93;;;3.00;99.90;;;;;;5027869;28;20201;-65
2021/01/08 01:25:55;;;;;;;14.37;8.90;;;3.00;99.90;;;;;;5025373;28;20231;-66
2021/01/08 01:28:21;;;;;;;12.30;9.00;;;3.00;99.90;;;;;;5022214;28;20204;-66
2021/01/08 01:30:48;;;;;;;14.33;9.17;;;3.00;99.90;;;;;;5021733;28;20231;-66
2021/01/08 01:33:14;;;;;;;14.93;9.77;;;3.00;99.90;;;;;;5022110;28;20207;-66
2021/01/08 01:35:41;;;;;;;15.13;9.90;;;3.10;99.90;;;;;;5023832;28;20200;-66
2021/01/08 01:38:08;;;;;;;17.50;10.80;;;3.10;99.90;;;;;;5022437;28;20193;-66
2021/01/08 01:40:34;;;;;;;15.37;10.23;;;3.10;99.90;;;;;;5022090;28;20228;-66
2021/01/08 01:43:01;;;;;;;18.60;10.97;;;3.10;99.90;;;;;;5026581;28;20203;-65
2021/01/08 01:45:27;;;;;;;21.07;12.10;;;3.20;99.90;;;;;;5034578;28;20200;-67
2021/01/08 01:47:54;;;;;;;15.97;8.27;;;3.20;99.90;;;;;;5030296;28;20212;-66
2021/01/08 01:50:21;;;;;;;13.43;8.20;;;3.20;99.90;;;;;;5023407;28;20243;-66
2021/01/08 01:52:47;;;;;;;12.60;8.37;;;3.20;99.90;;;;;;5025289;28;20204;-65
2021/01/08 01:55:15;;;;;;;14.57;9.30;;;3.20;99.90;;;;;;5021635;28;20659;-65
2021/01/08 01:57:42;;;;;;;13.57;10.33;;;3.20;99.90;;;;;;5027936;28;20739;-65
2021/01/08 02:00:10;;;;;;;18.30;10.03;;;3.30;99.90;;;;;;5029819;28;20199;-65
2021/01/08 02:02:39;;;;;;;16.70;9.87;;;3.30;99.90;;;;;;5021542;28;20197;-66
2021/01/08 02:05:08;;;;;;;19.13;10.53;;;3.30;99.90;;;;;;5024490;28;20304;-65
2021/01/08 02:07:42;;;;;;;17.20;11.37;;;3.40;99.90;;;;;;5028159;28;20197;-65
2021/01/08 02:10:11;;;;;;;20.87;12.13;;;3.40;99.90;;;;;;5021695;28;20200;-64
2021/01/08 02:12:40;;;;;;;21.43;12.57;;;3.40;99.90;;;;;;5030555;28;20204;-65
2021/01/08 02:15:10;;;;;;;19.50;11.07;;;3.40;99.90;;;;;;5028537;28;20208;-65
2021/01/08 02:17:36;;;;;;;14.20;9.43;;;3.40;99.90;;;;;;5032151;28;20282;-65
2021/01/08 02:20:06;;;;;;;11.07;7.00;;;3.40;99.90;;;;;;5031256;28;20197;-65
2021/01/08 02:22:43;;;;;;;12.17;6.00;;;3.40;99.90;;;;;;5032101;28;20583;-64
2021/01/08 02:25:14;;;;;;;9.87;4.73;;;3.40;99.90;;;;;;5032385;28;20192;-65
2021/01/08 02:27:51;;;;;;;8.70;5.07;;;3.40;99.90;;;;;;5031386;28;20239;-65
2021/01/08 02:30:18;;;;;;;9.37;4.30;;;3.50;99.90;;;;;;5031695;28;20203;-64
2021/01/08 02:32:45;;;;;;;6.70;4.30;;;3.50;99.90;;;;;;5031060;28;20506;-65
2021/01/08 02:35:12;;;;;;;9.13;5.13;;;3.50;99.90;;;;;;5027894;28;20239;-65
2021/01/08 02:37:42;;;;;;;6.30;4.90;;;3.50;99.90;;;;;;5032739;28;20224;-65
2021/01/08 02:40:13;;;;;;;11.23;5.47;;;3.50;99.90;;;;;;5025248;28;20220;-65
2021/01/08 02:42:41;;;;;;;9.30;5.73;;;3.50;99.90;;;;;;5031847;28;20197;-66
2021/01/08 02:45:08;;;;;;;11.10;6.30;;;3.50;99.90;;;;;;5032489;28;20276;-65
2021/01/08 02:47:35;;;;;;;8.57;5.10;;;3.50;99.90;;;;;;5033380;28;20200;-67
2021/01/08 02:50:02;;;;;;;6.13;4.53;;;3.50;99.90;;;;;;5028514;28;20262;-67
2021/01/08 02:52:29;;;;;;;11.27;5.13;;;3.50;99.90;;;;;;5311788;22;20638;-66
2021/01/08 02:54:57;;;;;;;6.80;5.03;;;3.50;99.90;;;;;;5021055;28;20221;-65
2021/01/08 02:57:26;;;;;;;6.80;5.03;;;3.40;99.90;;;;;;5031569;28;20235;-66
2021/01/08 02:59:55;;;;;;;10.10;5.67;;;3.40;99.90;;;;;;5030717;28;20290;-65
2021/01/08 03:02:22;;;;;;;7.60;5.53;;;3.40;99.90;;;;;;5030639;28;20574;-66
2021/01/08 03:04:49;;;;;;;8.97;5.67;;;3.40;99.90;;;;;;5022142;28;20192;-66
2021/01/08 03:07:19;;;;;;;10.00;5.73;;;3.40;99.90;;;;;;5024276;28;20192;-66
2021/01/08 03:09:45;;;;;;;9.23;5.00;;;3.40;99.90;;;;;;5031875;28;20256;-66
2021/01/08 03:12:14;;;;;;;10.13;5.53;;;3.30;99.90;;;;;;5029982;28;20201;-66
2021/01/08 03:14:43;;;;;;;10.03;5.10;;;3.30;99.90;;;;;;5031933;28;20196;-66
2021/01/08 03:17:10;;;;;;;11.73;4.80;;;3.30;99.90;;;;;;5025438;28;20238;-66
2021/01/08 03:19:36;;;;;;;7.40;4.87;;;3.30;99.90;;;;;;5018546;28;20212;-64
2021/01/08 03:22:03;;;;;;;9.03;5.63;;;3.30;99.90;;;;;;5032757;28;20208;-65
2021/01/08 03:24:29;;;;;;;11.33;6.37;;;3.30;99.90;;;;;;5028651;28;20207;-65
2021/01/08 03:26:56;;;;;;;9.93;5.97;;;3.40;99.90;;;;;;5031482;28;20199;-66
2021/01/08 03:29:22;;;;;;;9.70;6.23;;;3.40;99.90;;;;;;5025869;28;20200;-65
2021/01/08 03:31:50;;;;;;;10.70;7.20;;;3.40;99.90;;;;;;5031573;28;20207;-65
2021/01/08 03:34:16;;;;;;;8.70;7.00;;;3.40;99.90;;;;;;5014353;28;20204;-66
2021/01/08 03:36:43;;;;;;;12.93;6.93;;;3.40;99.90;;;;;;5026451;28;20572;-68
2021/01/08 03:39:09;;;;;;;14.70;7.80;;;3.40;99.90;;;;;;5027527;28;20208;-66
2021/01/08 03:41:36;;;;;;;14.23;8.77;;;3.50;99.90;;;;;;5028377;28;20204;-65
2021/01/08 03:44:03;;;;;;;17.80;9.70;;;3.50;99.90;;;;;;5021764;28;20193;-66
2021/01/08 03:46:35;;;;;;;14.83;9.50;;;3.50;99.90;;;;;;5025147;28;20197;-66
2021/01/08 03:49:03;;;;;;;15.00;9.73;;;3.50;99.90;;;;;;5020925;28;20220;-66
2021/01/08 03:51:30;;;;;;;13.13;9.43;;;3.50;99.90;;;;;;5025332;28;20207;-66
2021/01/08 03:53:56;;;;;;;16.57;9.20;;;3.50;99.90;;;;;;5013861;28;20236;-64
2021/01/08 03:56:23;;;;;;;11.67;7.57;;;3.50;99.90;;;;;;5028369;28;20263;-65
2021/01/08 03:58:49;;;;;;;11.87;8.47;;;3.60;99.90;;;;;;5032280;28;20204;-66
2021/01/08 04:01:16;;;;;;;13.07;8.00;;;3.60;99.90;;;;;;5028543;28;20200;-64
2021/01/08 04:03:42;;;;;;;10.27;6.97;;;3.60;99.90;;;;;;5019636;28;20270;-64
2021/01/08 04:06:10;;;;;;;10.50;6.90;;;3.50;99.90;;;;;;5030877;28;20727;-64
2021/01/08 04:08:37;;;;;;;11.53;6.93;;;3.50;99.90;;;;;;5032683;28;20200;-66
2021/01/08 04:11:03;;;;;;;11.33;6.73;;;3.50;99.90;;;;;;5037796;28;20193;-65
2021/01/08 04:13:30;;;;;;;8.93;6.03;;;3.50;99.90;;;;;;5020519;28;20210;-66
2021/01/08 04:15:56;;;;;;;10.10;6.07;;;3.50;99.90;;;;;;5032237;28;20249;-63
2021/01/08 04:18:23;;;;;;;7.50;5.43;;;3.50;99.90;;;;;;5027243;28;20196;-66
2021/01/08 04:20:49;;;;;;;8.37;5.73;;;3.50;99.90;;;;;;5012105;28;20654;-63
2021/01/08 04:23:17;;;;;;;9.00;6.13;;;3.50;99.90;;;;;;5018676;28;20204;-65
2021/01/08 04:25:43;;;;;;;8.07;4.97;;;3.40;99.90;;;;;;5031792;28;20201;-66
2021/01/08 04:28:10;;;;;;;7.47;5.00;;;3.50;99.90;;;;;;5031166;28;20211;-64
2021/01/08 04:30:36;;;;;;;6.70;5.17;;;3.50;99.90;;;;;;5025274;28;20650;-66
2021/01/08 04:33:03;;;;;;;7.50;5.37;;;3.50;99.90;;;;;;5025721;28;20204;-65
2021/01/08 04:35:30;;;;;;;12.27;6.03;;;3.50;99.90;;;;;;5029288;28;20208;-64
2021/01/08 04:37:57;;;;;;;7.87;5.97;;;3.50;99.90;;;;;;5030973;28;20649;-64
2021/01/08 04:40:24;;;;;;;10.57;6.30;;;3.50;99.90;;;;;;5031485;28;20257;-64
2021/01/08 04:42:51;;;;;;;10.67;6.93;;;3.50;99.90;;;;;;5030797;28;20200;-66
2021/01/08 04:45:17;;;;;;;8.97;6.43;;;3.50;99.90;;;;;;5032035;28;20200;-64
2021/01/08 04:47:46;;;;;;;10.30;6.67;;;3.50;99.90;;;;;;5032044;28;20258;-64
2021/01/08 04:50:14;;;;;;;10.83;6.03;;;3.50;99.90;;;;;;5031277;28;20200;-64
2021/01/08 04:52:41;;;;;;;10.27;6.17;;;3.50;99.90;;;;;;5029473;28;20228;-66
2021/01/08 04:55:09;;;;;;;9.20;6.40;;;3.50;99.90;;;;;;5030280;28;20239;-65
2021/01/08 04:57:39;;;;;;;9.80;6.93;;;3.50;99.90;;;;;;5034311;28;20660;-65
2021/01/08 05:00:07;;;;;;;9.93;6.30;;;3.50;99.90;;;;;;5030218;28;20196;-65
2021/01/08 05:02:33;;;;;;;12.07;7.43;;;3.50;99.90;;;;;;5027453;28;20684;-64
2021/01/08 05:05:01;;;;;;;10.50;7.07;;;3.50;99.90;;;;;;5034729;28;20204;-64
2021/01/08 05:07:27;;;;;;;10.13;6.60;;;3.50;99.90;;;;;;5035295;28;20200;-66
2021/01/08 05:09:54;;;;;;;11.63;7.40;;;3.50;99.90;;;;;;5034362;28;20192;-66
2021/01/08 05:12:39;;;;;;;10.63;6.80;;;3.50;99.90;;;;;;5033818;28;20661;-66
2021/01/08 05:15:13;;;;;;;13.70;8.23;;;3.50;99.90;;;;;;5027272;28;20192;-66
2021/01/08 05:17:41;;;;;;;12.20;9.03;;;3.50;99.90;;;;;;5022888;28;20225;-65
2021/01/08 05:20:08;;;;;;;15.13;9.53;;;3.40;99.90;;;;;;5020282;28;20222;-67
2021/01/08 05:22:35;;;;;;;15.63;9.83;;;3.40;99.90;;;;;;5028114;28;20614;-66
2021/01/08 05:25:04;;;;;;;19.40;10.80;;;3.30;99.90;;;;;;5028039;28;20208;-68
2021/01/08 05:27:31;;;;;;;17.70;9.90;;;3.30;99.90;;;;;;5022655;28;20202;-68
2021/01/08 05:30:13;;;;;;;17.63;9.97;;;3.30;99.90;;;;;;5022409;28;20254;-66
2021/01/08 05:32:40;;;;;;;19.13;10.50;;;3.30;99.90;;;;;;5022272;28;20196;-68
2021/01/08 05:35:08;;;;;;;19.17;10.50;;;3.30;99.90;;;;;;5022695;28;20204;-65
2021/01/08 05:37:34;;;;;;;19.37;11.47;;;3.30;99.90;;;;;;5022364;28;20227;-64
2021/01/08 05:40:01;;;;;;;19.13;11.30;;;3.30;99.90;;;;;;5024247;28;20227;-66
2021/01/08 05:42:27;;;;;;;18.93;12.13;;;3.30;99.90;;;;;;5022076;28;20207;-65
2021/01/08 05:44:54;;;;;;;26.33;11.83;;;3.30;99.90;;;;;;5023378;28;20208;-66
2021/01/08 05:47:22;;;;;;;18.33;11.53;;;3.30;99.90;;;;;;5023096;28;20208;-65
2021/01/08 05:49:49;;;;;;;14.67;8.57;;;3.30;99.90;;;;;;5021663;28;20203;-68
2021/01/08 05:52:16;;;;;;;15.20;9.07;;;3.30;99.90;;;;;;5018944;28;20251;-65
2021/01/08 05:54:44;;;;;;;13.60;8.43;;;3.30;99.90;;;;;;5022563;28;20204;-64
2021/01/08 05:57:12;;;;;;;17.27;8.87;;;3.20;99.90;;;;;;5021374;28;20248;-66
2021/01/08 05:59:40;;;;;;;20.07;9.73;;;3.30;99.90;;;;;;5022708;28;20201;-65
2021/01/08 06:02:08;;;;;;;16.10;9.90;;;3.20;99.90;;;;;;5020631;28;20322;-66
2021/01/08 06:04:40;;;;;;;13.87;9.30;;;3.20;99.90;;;;;;5021589;28;20653;-65
2021/01/08 06:07:15;;;;;;;10.33;6.50;;;3.20;99.90;;;;;;5021818;28;20751;-65
2021/01/08 06:09:44;;;;;;;12.80;6.73;;;3.20;99.90;;;;;;5020068;28;20200;-66
2021/01/08 06:12:12;;;;;;;9.63;6.50;;;3.30;99.90;;;;;;5019420;28;20955;-66
2021/01/08 06:14:39;;;;;;;8.47;6.23;;;3.30;99.90;;;;;;5021697;28;20204;-65
2021/01/08 06:17:07;;;;;;;11.03;6.90;;;3.30;99.90;;;;;;5020650;28;20232;-64
2021/01/08 06:19:34;;;;;;;12.67;7.47;;;3.30;99.90;;;;;;5021235;28;20668;-63
2021/01/08 06:22:02;;;;;;;17.40;8.23;;;3.30;99.90;;;;;;5020723;28;20226;-65
2021/01/08 06:24:29;;;;;;;14.73;8.70;;;3.30;99.90;;;;;;5021681;28;20204;-64
2021/01/08 06:26:56;;;;;;;15.70;9.03;;;3.30;99.90;;;;;;5020546;28;20201;-67
2021/01/08 06:29:24;;;;;;;17.87;9.47;;;3.20;99.90;;;;;;5020817;28;20205;-66
2021/01/08 06:31:52;;;;;;;15.13;9.10;;;3.20;99.90;;;;;;5020799;28;20245;-64
2021/01/08 06:34:23;;;;;;;20.03;10.10;;;3.20;99.90;;;;;;5021796;28;20688;-65
2021/01/08 06:37:04;;;;;;;20.93;10.63;;;3.20;99.90;;;;;;5021557;28;20883;-66
2021/01/08 06:39:35;;;;;;;17.93;10.27;;;3.20;99.90;;;;;;5019405;28;20288;-64
2021/01/08 06:42:02;;;;;;;17.00;9.83;;;3.20;99.90;;;;;;5025331;28;20204;-64
2021/01/08 06:44:30;;;;;;;17.40;10.07;;;3.20;99.90;;;;;;5022568;28;20220;-65
2021/01/08 06:46:58;;;;;;;19.00;10.57;;;3.20;99.90;;;;;;5020535;28;20295;-65
2021/01/08 06:49:25;;;;;;;15.80;8.93;;;3.10;99.90;;;;;;5021391;28;20228;-67
2021/01/08 06:51:52;;;;;;;11.40;7.93;;;3.10;99.90;;;;;;5019782;28;20204;-66
2021/01/08 06:54:19;;;;;;;13.23;8.23;;;3.00;99.90;;;;;;5020974;28;20290;-64
2021/01/08 06:56:46;;;;;;;16.60;8.10;;;3.00;99.90;;;;;;5020411;28;20231;-64
2021/01/08 06:59:14;;;;;;;13.13;8.60;;;2.90;99.90;;;;;;5020713;28;20196;-66
2021/01/08 07:01:52;;;;;;;14.93;7.60;;;2.90;99.90;;;;;;5018631;28;20544;-66
2021/01/08 07:04:20;;;;;;;14.50;9.13;;;2.90;99.90;;;;;;5021565;28;20204;-64
2021/01/08 07:06:48;;;;;;;16.17;9.73;;;2.90;99.90;;;;;;5020956;28;20196;-65
2021/01/08 07:09:14;;;;;;;17.13;9.07;;;2.90;99.90;;;;;;5021215;28;20229;-66
2021/01/08 07:11:42;;;;;;;16.17;10.03;;;2.90;99.90;;;;;;5018204;28;20208;-65
2021/01/08 07:14:14;;;;;;;15.30;9.63;;;2.80;99.90;;;;;;5019744;28;20200;-65
2021/01/08 07:16:43;;;;;;;20.30;11.20;;;2.80;99.90;;;;;;5020361;28;20238;-66
2021/01/08 07:19:11;;;;;;;21.50;11.80;;;2.70;99.90;;;;;;5019742;28;20357;-65
2021/01/08 07:21:43;;;;;;;22.77;12.07;;;2.60;99.90;;;;;;5020004;28;20205;-64
2021/01/08 07:24:11;;;;;;;21.47;12.60;;;2.60;99.90;;;;;;5019749;28;20688;-64
2021/01/08 07:26:38;;;;;;;24.93;13.50;;;2.60;99.90;;;;;;5019683;28;20747;-65
2021/01/08 07:29:08;;;;;;;28.97;13.13;;;2.50;99.90;;;;;;5025144;28;20205;-67
2021/01/08 07:31:35;;;;;;;27.30;14.07;;;2.50;99.90;;;;;;5025615;28;20295;-65
2021/01/08 07:34:04;;;;;;;25.90;13.37;;;2.50;99.90;;;;;;5031665;28;20200;-64
2021/01/08 07:36:32;;;;;;;28.60;14.53;;;2.50;99.90;;;;;;5032582;28;20232;-65
2021/01/08 07:38:59;;;;;;;27.40;13.87;;;2.40;99.90;;;;;;5032666;28;20208;-65
2021/01/08 07:41:46;;;;;;;27.37;14.33;;;2.40;99.90;;;;;;5028929;28;20197;-65
2021/01/08 07:44:33;;;;;;;25.57;13.20;;;2.30;99.90;;;;;;5032378;28;20203;-65
2021/01/08 07:47:20;;;;;;;26.03;14.03;;;2.30;99.90;;;;;;5032516;28;20231;-65
2021/01/08 07:50:11;;;;;;;25.33;13.90;;;2.30;99.90;;;;;;5030072;28;20207;-66
2021/01/08 07:52:39;;;;;;;29.43;15.03;;;2.20;99.90;;;;;;4971083;28;20234;-65
2021/01/08 07:55:07;;;;;;;25.77;13.57;;;2.20;99.90;;;;;;4972966;28;20195;-67
2021/01/08 07:58:04;;;;;;;30.87;14.10;;;2.20;99.90;;;;;;4972404;28;20249;-71
2021/01/08 08:00:32;;;;;;;28.80;13.90;;;2.30;99.90;;;;;;4959616;28;20281;-65
2021/01/08 08:03:00;;;;;;;25.03;13.30;;;2.40;99.90;;;;;;4966730;28;20198;-66
2021/01/08 08:05:28;;;;;;;24.90;12.67;;;2.50;99.90;;;;;;4960829;28;20207;-67
2021/01/08 08:07:58;;;;;;;23.50;11.47;;;2.60;99.90;;;;;;4954373;28;20198;-66
2021/01/08 08:10:25;;;;;;;23.80;12.07;;;2.70;99.90;;;;;;4972004;28;20202;-66
2021/01/08 08:12:52;;;;;;;21.50;11.70;;;2.80;99.90;;;;;;4970674;28;20659;-65
2021/01/08 08:15:19;;;;;;;18.27;8.40;;;2.90;99.90;;;;;;4972954;28;20560;-66
2021/01/08 08:17:47;;;;;;;10.13;6.43;;;2.90;99.90;;;;;;4974692;28;20691;-66
2021/01/08 08:20:23;;;;;;;7.60;3.90;;;3.00;99.90;;;;;;4954335;28;20203;-65
2021/01/08 08:22:52;;;;;;;4.27;2.70;;;3.10;99.90;;;;;;4969227;28;20202;-66
2021/01/08 08:25:37;;;;;;;4.10;2.00;;;3.10;99.90;;;;;;4971201;28;20198;-65
2021/01/08 08:28:04;;;;;;;2.70;2.37;;;3.20;99.90;;;;;;4962181;28;20683;-66
2021/01/08 08:30:31;;;;;;;23.60;18.60;;;3.30;99.90;;;;;;4962460;28;20198;-68
2021/01/08 08:33:00;;;;;;;220.27;162.93;;;3.30;99.90;;;;;;4963869;28;20253;-67
2021/01/08 08:35:27;;;;;;;32.13;25.40;;;3.30;99.90;;;;;;4963892;28;20211;-68
2021/01/08 08:37:55;;;;;;;9.30;8.20;;;3.40;99.90;;;;;;4964744;28;20237;-66
2021/01/08 08:40:24;;;;;;;6.83;5.27;;;3.40;99.90;;;;;;4961745;28;20198;-67
2021/01/08 08:42:53;;;;;;;6.73;4.10;;;3.40;99.90;;;;;;4970186;28;20198;-67
2021/01/08 08:45:21;;;;;;;5.93;3.83;;;3.50;99.90;;;;;;4968597;28;20249;-67
2021/01/08 08:47:49;;;;;;;4.47;3.00;;;3.50;99.90;;;;;;4963400;28;20202;-67
2021/01/08 08:50:17;;;;;;;3.70;2.00;;;3.60;99.90;;;;;;4963855;28;20217;-66
2021/01/08 08:52:44;;;;;;;1.93;1.60;;;3.60;99.90;;;;;;4962666;28;20269;-68
2021/01/08 08:55:28;;;;;;;5.67;1.40;;;3.70;99.90;;;;;;4963821;28;20200;-68
2021/01/08 08:58:03;;;;;;;3.30;1.40;;;3.70;99.90;;;;;;4965555;28;20293;-66
2021/01/08 09:00:29;;;;;;;2.23;1.30;;;3.70;99.90;;;;;;4963187;28;20210;-66
2021/01/08 09:02:56;;;;;;;3.47;1.43;;;3.70;99.90;;;;;;4963309;28;20203;-65
2021/01/08 09:05:30;;;;;;;2.27;1.37;;;3.70;99.90;;;;;;4963793;28;20194;-66
2021/01/08 09:08:02;;;;;;;3.73;1.23;;;3.70;99.90;;;;;;4966655;28;20292;-65
2021/01/08 09:10:32;;;;;;;2.33;2.13;;;3.80;99.90;;;;;;4970104;28;20202;-65
2021/01/08 09:13:10;;;;;;;1.97;1.60;;;3.80;99.90;;;;;;4975139;28;20190;-67
2021/01/08 09:15:45;;;;;;;2.50;1.53;;;3.80;99.90;;;;;;4968485;28;20202;-67
2021/01/08 09:18:20;;;;;;;1.73;1.63;;;3.90;99.90;;;;;;4966821;28;20213;-66
2021/01/08 09:20:57;;;;;;;6.43;1.87;;;4.00;99.90;;;;;;5001448;28;20228;-66
2021/01/08 09:23:23;;;;;;;3.40;2.00;;;4.10;99.90;;;;;;5015381;28;20189;-66
2021/01/08 09:25:52;;;;;;;3.07;2.27;;;4.20;99.90;;;;;;5009866;28;20200;-66
2021/01/08 09:28:18;;;;;;;2.83;2.47;;;4.40;99.90;;;;;;4995548;28;20205;-67
2021/01/08 09:30:54;;;;;;;4.63;1.80;;;4.60;99.90;;;;;;5006347;28;20228;-67
2021/01/08 09:33:20;;;;;;;4.53;1.87;;;4.70;99.90;;;;;;5007630;28;20209;-66
2021/01/08 09:35:47;;;;;;;2.50;2.13;;;4.80;99.90;;;;;;5002374;28;20227;-67
2021/01/08 09:38:15;;;;;;;5.43;2.20;;;4.90;99.90;;;;;;5001679;28;20281;-68
2021/01/08 09:40:42;;;;;;;6.53;2.17;;;5.00;99.90;;;;;;5006696;28;20216;-67
2021/01/08 09:43:16;;;;;;;4.10;2.57;;;5.10;99.90;;;;;;5004193;28;22539;-65
2021/01/08 09:45:43;;;;;;;4.17;2.90;;;5.10;99.90;;;;;;4999569;28;20622;-67
2021/01/08 09:48:24;;;;;;;3.30;3.00;;;5.20;99.90;;;;;;4998667;28;20201;-67
2021/01/08 09:51:00;;;;;;;5.37;2.87;;;5.30;99.90;;;;;;4999308;28;20208;-65
2021/01/08 09:53:27;;;;;;;3.83;2.30;;;5.50;99.90;;;;;;5001936;28;20224;-66
2021/01/08 09:55:54;;;;;;;3.27;2.17;;;5.80;99.90;;;;;;4998557;28;20224;-66
2021/01/08 09:58:20;;;;;;;2.90;2.17;;;6.00;99.90;;;;;;5002367;28;20237;-66
2021/01/08 10:00:50;;;;;;;4.67;2.20;;;6.20;99.90;;;;;;5002241;28;20216;-67
2021/01/08 10:03:21;;;;;;;2.17;1.97;;;6.30;99.90;;;;;;5003201;28;20217;-66
2021/01/08 10:05:47;;;;;;;3.63;1.73;;;6.40;99.90;;;;;;4996355;28;20210;-65
2021/01/08 10:08:22;;;;;;;1.83;1.50;;;6.50;99.90;;;;;;4990806;28;20212;-64
2021/01/08 10:10:49;;;;;;;1.40;1.30;;;6.50;99.90;;;;;;4992465;28;20205;-65
2021/01/08 10:13:18;;;;;;;3.00;1.40;;;6.80;99.90;;;;;;5000471;28;20197;-66
2021/01/08 10:15:47;;;;;;;1.70;1.20;;;7.00;99.90;;;;;;4998771;28;20201;-65
2021/01/08 10:18:18;;;;;;;1.70;1.10;;;7.20;99.90;;;;;;4996321;28;20236;-66
2021/01/08 10:20:48;;;;;;;1.13;0.90;;;7.60;99.90;;;;;;4999811;28;20198;-65
2021/01/08 10:23:16;;;;;;;1.17;0.97;;;7.80;99.90;;;;;;4998760;28;20197;-66
2021/01/08 10:25:43;;;;;;;3.20;3.00;;;7.70;99.90;;;;;;4997006;28;20672;-64
2021/01/08 10:28:16;;;;;;;2.00;1.23;;;7.40;99.90;;;;;;4999232;28;20272;-66
2021/01/08 10:30:44;;;;;;;2.57;2.37;;;6.70;99.90;;;;;;4997042;28;20248;-65
2021/01/08 10:33:10;;;;;;;2.30;2.13;;;6.40;99.90;;;;;;4999965;28;20197;-65
2021/01/08 10:35:37;;;;;;;1.73;1.20;;;6.20;99.90;;;;;;4996132;28;20201;-66
2021/01/08 10:38:04;;;;;;;3.10;2.90;;;6.00;99.90;;;;;;4999345;28;20240;-66
2021/01/08 10:40:31;;;;;;;3.20;2.97;;;5.90;99.90;;;;;;4998447;28;20204;-66
2021/01/08 10:42:57;;;;;;;2.80;2.47;;;5.70;99.90;;;;;;4999216;28;20611;-67
2021/01/08 10:45:25;;;;;;;0.60;0.60;;;5.50;99.90;;;;;;4999662;28;20206;-66
2021/01/08 10:47:51;;;;;;;2.27;1.20;;;5.30;99.90;;;;;;5000459;28;20202;-65
2021/01/08 10:50:18;;;;;;;2.10;1.00;;;5.30;99.90;;;;;;5000381;28;20208;-65
2021/01/08 10:52:45;;;;;;;3.07;1.80;;;5.20;99.90;;;;;;4999330;28;20731;-67
2021/01/08 10:55:12;;;;;;;1.53;1.43;;;5.30;99.90;;;;;;4997339;28;20254;-65
2021/01/08 10:57:39;;;;;;;0.93;0.93;;;5.40;99.90;;;;;;5000263;28;20221;-66
2021/01/08 11:00:08;;;;;;;2.77;0.93;;;5.50;99.90;;;;;;4999161;28;20358;-65
2021/01/08 11:02:35;;;;;;;1.07;1.00;;;5.50;99.90;;;;;;4998465;28;20630;-65
2021/01/08 11:05:02;;;;;;;2.13;0.67;;;5.70;99.90;;;;;;4997182;28;20210;-66
2021/01/08 11:07:29;;;;;;;1.83;0.90;;;5.80;99.90;;;;;;4998083;28;20206;-66
2021/01/08 11:09:55;;;;;;;2.63;0.87;;;5.90;99.90;;;;;;4998593;28;20214;-65
2021/01/08 11:12:21;;;;;;;1.43;0.83;;;6.00;99.90;;;;;;5001787;28;20219;-66
2021/01/08 11:14:48;;;;;;;1.23;0.80;;;6.00;99.90;;;;;;5008405;28;20208;-66
2021/01/08 11:17:14;;;;;;;0.83;0.60;;;5.90;99.90;;;;;;4997403;28;20229;-68
2021/01/08 11:19:42;;;;;;;1.17;0.90;;;5.90;99.90;;;;;;4992030;28;20212;-66
2021/01/08 11:22:08;;;;;;;2.57;1.03;;;6.10;99.90;;;;;;4989388;28;20222;-67
2021/01/08 11:24:37;;;;;;;1.20;0.67;;;6.30;99.90;;;;;;4989297;28;20228;-65
2021/01/08 11:27:04;;;;;;;0.67;0.67;;;6.40;99.90;;;;;;4991869;28;20213;-64
2021/01/08 11:29:31;;;;;;;0.63;0.53;;;6.40;99.90;;;;;;4994164;28;20271;-66
2021/01/08 11:31:58;;;;;;;0.87;0.77;;;6.30;99.90;;;;;;4989887;28;20197;-66
2021/01/08 11:34:24;;;;;;;2.47;0.90;;;6.30;99.90;;;;;;4990913;28;20201;-65
2021/01/08 11:36:56;;;;;;;0.60;0.60;;;6.50;99.90;;;;;;4987501;28;20224;-66
2021/01/08 11:39:23;;;;;;;0.97;0.77;;;6.70;99.90;;;;;;4996179;28;20240;-67
2021/01/08 11:41:53;;;;;;;1.10;0.63;;;7.00;99.90;;;;;;4998727;28;20198;-67
2021/01/08 11:44:20;;;;;;;1.87;1.00;;;7.40;99.90;;;;;;4999649;28;20212;-73
2021/01/08 11:46:48;;;;;;;1.00;0.73;;;7.80;99.90;;;;;;4990996;28;20205;-66
2021/01/08 11:49:15;;;;;;;1.87;0.90;;;8.00;99.90;;;;;;4997748;28;20201;-66
2021/01/08 11:51:41;;;;;;;0.47;0.47;;;8.20;99.90;;;;;;4998106;28;20271;-66
2021/01/08 11:54:09;;;;;;;0.60;0.40;;;8.40;99.90;;;;;;4999683;28;20248;-66
2021/01/08 11:56:36;;;;;;;0.60;0.60;;;8.60;99.90;;;;;;4998943;28;20255;-68
2021/01/08 11:59:03;;;;;;;1.10;0.40;;;8.40;99.90;;;;;;4998662;28;20193;-66
2021/01/08 12:01:30;;;;;;;0.20;0.20;;;8.20;99.90;;;;;;4998261;28;20197;-66
2021/01/08 12:03:58;;;;;;;0.97;0.57;;;8.00;99.90;;;;;;4996534;28;20201;-65
2021/01/08 12:06:29;;;;;;;1.23;0.57;;;7.80;99.90;;;;;;4998465;28;20201;-65
2021/01/08 12:08:57;;;;;;;0.90;0.37;;;7.90;99.90;;;;;;5002704;28;20212;-65
2021/01/08 12:11:25;;;;;;;0.30;0.30;;;8.00;99.90;;;;;;5004647;28;20638;-65
2021/01/08 12:13:51;;;;;;;1.10;0.77;;;7.90;99.90;;;;;;5003153;28;20216;-64
2021/01/08 12:16:25;;;;;;;0.40;0.40;;;8.10;99.90;;;;;;5002143;28;20208;-66
2021/01/08 12:18:52;;;;;;;0.70;0.70;;;8.40;99.90;;;;;;5000747;28;20247;-66
2021/01/08 12:21:18;;;;;;;2.03;0.90;;;8.60;99.90;;;;;;5002573;28;20201;-66
2021/01/08 12:23:45;;;;;;;0.63;0.60;;;8.80;99.90;;;;;;5003799;28;20668;-64
2021/01/08 12:26:19;;;;;;;0.63;0.50;;;9.30;99.90;;;;;;5002726;28;20599;-63
2021/01/08 12:28:46;;;;;;;0.40;0.40;;;9.90;99.90;;;;;;5001617;28;20200;-64
2021/01/08 12:31:13;;;;;;;1.27;0.50;;;10.40;99.90;;;;;;5000079;28;20197;-66
2021/01/08 12:33:41;;;;;;;0.40;0.40;;;10.60;99.90;;;;;;5003916;28;20202;-65
2021/01/08 12:36:09;;;;;;;1.67;0.40;;;10.50;99.90;;;;;;5001521;28;20212;-63
2021/01/08 12:38:36;;;;;;;0.87;0.50;;;10.40;99.90;;;;;;5002788;28;20224;-63
2021/01/08 12:41:03;;;;;;;0.40;0.30;;;10.60;99.90;;;;;;5000646;28;20200;-63
2021/01/08 12:43:29;;;;;;;1.30;0.60;;;10.80;99.90;;;;;;5002148;28;20201;-63
2021/01/08 12:45:56;;;;;;;1.03;0.70;;;10.80;99.90;;;;;;5001381;28;20208;-63
2021/01/08 12:48:23;;;;;;;0.83;0.83;;;10.80;99.90;;;;;;5002984;28;20205;-64
2021/01/08 12:50:49;;;;;;;4.20;1.47;;;10.70;99.90;;;;;;5003243;28;20193;-63
2021/01/08 12:53:16;;;;;;;0.63;0.60;;;10.30;99.90;;;;;;5000937;28;20236;-64
2021/01/08 12:55:42;;;;;;;2.10;0.87;;;9.80;99.90;;;;;;5004239;28;20197;-62
2021/01/08 12:58:09;;;;;;;1.60;0.80;;;9.30;99.90;;;;;;5001014;28;20275;-64